Time;durP1;ratioP1;P1;durP2;ratioP2;P2;SDS_P1;SDS_P2;PMS_P1;PMS_P2;Temp;Humidity;BMP_temperature;BMP_pressure;BME280_temperature;BME280_humidity;BME280_pressure;Samples;Min_cycle;Max_cycle;Signal;HPM_P1;HPM_P2
2022/06/15 00:01:56;;;;;;;6.80;5.57;;;;;;;13.81;100.00;95321.00;5084129;28;20061;-73
2022/06/15 00:04:23;;;;;;;8.80;4.72;;;;;;;13.77;100.00;95317.28;5081651;28;20040;-73
2022/06/15 00:06:50;;;;;;;6.55;4.38;;;;;;;13.73;100.00;95311.72;5089711;28;20105;-72
2022/06/15 00:09:17;;;;;;;6.22;4.75;;;;;;;13.68;100.00;95313.47;5087979;28;20044;-73
2022/06/15 00:11:45;;;;;;;8.35;5.90;;;;;;;13.64;100.00;95314.97;5082872;28;20044;-73
2022/06/15 00:14:18;;;;;;;7.70;4.78;;;;;;;13.63;100.00;95308.97;5081676;28;20047;-72
2022/06/15 00:16:45;;;;;;;5.97;4.78;;;;;;;13.55;100.00;95291.81;5069847;28;20532;-73
2022/06/15 00:19:13;;;;;;;8.30;4.55;;;;;;;13.61;100.00;95299.75;5087326;28;20264;-72
2022/06/15 00:21:40;;;;;;;12.60;6.45;;;;;;;13.63;100.00;95297.69;5071040;28;20035;-73
2022/06/15 00:24:07;;;;;;;11.18;4.55;;;;;;;13.61;100.00;95305.75;5084372;28;20047;-73
2022/06/15 00:26:34;;;;;;;5.78;4.00;;;;;;;13.56;100.00;95298.66;5083346;28;20063;-73
2022/06/15 00:29:01;;;;;;;5.00;3.67;;;;;;;13.69;100.00;95307.22;5082516;28;20051;-73
2022/06/15 00:31:28;;;;;;;8.95;4.72;;;;;;;13.80;100.00;95314.19;5069724;28;20035;-73
2022/06/15 00:33:54;;;;;;;5.63;4.32;;;;;;;13.78;100.00;95305.78;5063232;28;20048;-73
2022/06/15 00:36:22;;;;;;;4.80;3.67;;;;;;;13.82;100.00;95317.34;5065787;28;20051;-71
2022/06/15 00:38:55;;;;;;;5.90;4.43;;;;;;;13.82;100.00;95324.41;5082367;28;20105;-73
2022/06/15 00:41:36;;;;;;;5.97;4.50;;;;;;;13.82;100.00;95319.97;5081582;28;20044;-73
2022/06/15 00:44:26;;;;;;;5.72;4.05;;;;;;;13.84;100.00;95319.72;5061865;28;20127;-75
2022/06/15 00:47:04;;;;;;;6.68;4.18;;;;;;;13.69;100.00;95302.75;5090580;28;20043;-74
2022/06/15 00:50:06;;;;;;;6.97;3.80;;;;;;;13.75;100.00;95327.97;5062962;28;20512;-73
2022/06/15 00:52:39;;;;;;;7.43;4.07;;;;;;;13.62;100.00;95317.06;5068584;28;20055;-73
2022/06/15 00:55:13;;;;;;;6.88;4.82;;;;;;;13.60;100.00;95319.13;5080872;28;20044;-73
2022/06/15 00:57:40;;;;;;;7.13;4.87;;;;;;;13.43;100.00;95309.41;5066217;28;20201;-73
2022/06/15 01:00:11;;;;;;;5.82;4.40;;;;;;;13.46;100.00;95319.41;5047863;28;20036;-73
2022/06/15 01:02:40;;;;;;;6.78;4.60;;;;;;;13.40;100.00;95325.59;5084498;28;20511;-73
2022/06/15 01:05:14;;;;;;;7.25;3.83;;;;;;;13.35;100.00;95317.66;5081826;28;20051;-74
2022/06/15 01:08:05;;;;;;;9.68;4.93;;;;;;;13.29;100.00;95323.78;5062270;28;20037;-74
2022/06/15 01:10:51;;;;;;;6.93;4.45;;;;;;;13.23;100.00;95319.50;5084419;28;20039;-74
2022/06/15 01:13:48;;;;;;;6.90;4.55;;;;;;;13.18;100.00;95320.19;5080430;28;20047;-74
2022/06/15 01:16:40;;;;;;;5.20;4.10;;;;;;;13.15;100.00;95324.09;5054854;28;20535;-73
2022/06/15 01:19:36;;;;;;;4.40;3.90;;;;;;;13.12;100.00;95319.31;5065249;28;20040;-73
2022/06/15 01:22:19;;;;;;;5.68;4.57;;;;;;;13.06;100.00;95325.50;5061231;28;20048;-73
2022/06/15 01:24:52;;;;;;;6.88;4.13;;;;;;;12.99;100.00;95324.84;5085193;28;20044;-73
2022/06/15 01:27:27;;;;;;;5.40;4.30;;;;;;;12.96;100.00;95320.06;5082586;28;20048;-73
2022/06/15 01:30:14;;;;;;;5.20;4.60;;;;;;;12.94;100.00;95314.28;5071652;28;20032;-72
2022/06/15 01:32:50;;;;;;;5.50;4.00;;;;;;;12.96;100.00;95320.06;5062437;28;20043;-72
2022/06/15 01:35:42;;;;;;;5.88;4.47;;;;;;;12.98;100.00;95324.06;5060053;28;20040;-72
2022/06/15 01:38:31;;;;;;;5.25;4.38;;;;;;;13.01;100.00;95317.56;5079365;28;20039;-72
2022/06/15 01:41:13;;;;;;;7.10;5.00;;;;;;;13.03;100.00;95320.72;5086914;28;20028;-72
2022/06/15 01:43:50;;;;;;;4.32;3.92;;;;;;;13.03;100.00;95331.19;5063272;28;20599;-72
2022/06/15 01:46:18;;;;;;;4.68;3.40;;;;;;;13.00;100.00;95321.22;5067085;28;20040;-72
2022/06/15 01:48:48;;;;;;;6.35;3.80;;;;;;;13.01;100.00;95328.00;5065233;28;20063;-72
2022/06/15 01:51:20;;;;;;;7.85;4.15;;;;;;;13.01;100.00;95328.78;5070148;28;20481;-72
2022/06/15 01:54:02;;;;;;;5.50;4.25;;;;;;;12.93;100.00;95321.34;5062278;28;20074;-72
2022/06/15 01:56:37;;;;;;;13.25;5.43;;;;;;;12.98;100.00;95331.09;5091168;28;20046;-72
2022/06/15 01:59:10;;;;;;;7.57;5.00;;;;;;;12.96;100.00;95335.75;5081904;28;20047;-72
2022/06/15 02:02:02;;;;;;;6.57;4.00;;;;;;;12.97;100.00;95332.13;5099582;27;20066;-72
2022/06/15 02:04:44;;;;;;;7.03;4.10;;;;;;;12.92;100.00;95332.03;5065096;28;20167;-72
2022/06/15 02:07:35;;;;;;;6.25;3.58;;;;;;;12.85;100.00;95326.13;5072960;28;20044;-71
2022/06/15 02:10:30;;;;;;;5.53;4.68;;;;;;;12.79;100.00;95320.03;5087111;28;20036;-72
2022/06/15 02:13:11;;;;;;;;;;;;;;;12.88;100.00;95343.97;5087083;28;20047;-72
2022/06/15 02:15:45;;;;;;;5.35;3.90;;;;;;;12.78;100.00;95337.53;5083698;28;19920;-71
2022/06/15 02:18:18;;;;;;;7.05;3.80;;;;;;;12.79;100.00;95340.94;5069902;28;20052;-71
2022/06/15 02:20:51;;;;;;;8.93;4.28;;;;;;;12.76;100.00;95331.72;5062998;28;20032;-71
2022/06/15 02:23:20;;;;;;;;;;;;;;;12.72;100.00;95337.66;5066093;28;20071;-71
2022/06/15 02:25:49;;;;;;;8.82;4.40;;;;;;;12.67;100.00;95337.56;5102612;27;20515;-72
2022/06/15 02:28:19;;;;;;;5.95;3.53;;;;;;;12.66;100.00;95336.78;5101605;27;20063;-72
2022/06/15 02:30:46;;;;;;;8.63;4.55;;;;;;;12.66;100.00;95344.59;5081364;28;20071;-71
2022/06/15 02:33:25;;;;;;;6.60;3.92;;;;;;;12.65;100.00;95334.38;5098092;28;20052;-71
2022/06/15 02:35:56;;;;;;;8.45;4.10;;;;;;;12.66;100.00;95331.53;5073419;28;20338;-72
2022/06/15 02:38:25;;;;;;;7.38;4.40;;;;;;;12.71;100.00;95342.09;5076303;28;20413;-72
2022/06/15 02:40:52;;;;;;;8.43;3.80;;;;;;;12.66;100.00;95323.69;5081811;28;20044;-73
2022/06/15 02:43:24;;;;;;;8.48;4.75;;;;;;;12.73;100.00;95337.44;5107726;28;20039;-73
2022/06/15 02:45:55;;;;;;;7.78;4.00;;;;;;;12.69;100.00;95323.22;5098101;28;20036;-73
2022/06/15 02:48:28;;;;;;;9.15;4.35;;;;;;;12.77;100.00;95333.31;5087152;28;20107;-73
2022/06/15 02:51:41;;;;;;;6.47;4.32;;;;;;;12.76;100.00;95334.34;5065896;28;20040;-73
2022/06/15 02:54:17;;;;;;;8.68;4.20;;;;;;;12.69;100.00;95335.50;5036752;28;20075;-73
2022/06/15 02:56:46;;;;;;;5.63;4.22;;;;;;;12.48;100.00;95318.59;5065674;28;20146;-73
2022/06/15 02:59:13;;;;;;;6.82;4.47;;;;;;;12.49;100.00;95341.13;5081071;28;20064;-73
2022/06/15 03:01:41;;;;;;;4.63;3.55;;;;;;;12.31;100.00;95329.78;5051643;28;20036;-72
2022/06/15 03:04:08;;;;;;;8.32;4.53;;;;;;;12.35;100.00;95336.16;5041707;28;20032;-73
2022/06/15 03:06:36;;;;;;;6.72;4.28;;;;;;;12.33;100.00;95340.78;5062300;28;20656;-73
2022/06/15 03:09:08;;;;;;;5.15;4.03;;;;;;;12.23;100.00;95337.97;5059148;28;20722;-73
2022/06/15 03:11:41;;;;;;;5.38;4.25;;;;;;;12.29;100.00;95344.88;5063904;28;20079;-73
2022/06/15 03:14:28;;;;;;;15.02;5.03;;;;;;;12.20;100.00;95333.97;5078863;28;20044;-72
2022/06/15 03:16:57;;;;;;;7.72;4.50;;;;;;;12.28;100.00;95351.16;5064261;28;20444;-73
2022/06/15 03:19:28;;;;;;;6.13;4.50;;;;;;;12.26;100.00;95347.16;5058788;28;20043;-73
2022/06/15 03:22:00;;;;;;;7.63;3.90;;;;;;;12.27;100.00;95339.09;5062600;28;20473;-73
2022/06/15 03:24:30;;;;;;;7.88;4.90;;;;;;;12.34;100.00;95350.22;5060976;28;20039;-73
2022/06/15 03:26:57;;;;;;;6.65;3.92;;;;;;;12.40;100.00;95349.28;5064282;28;20121;-73
2022/06/15 03:29:25;;;;;;;9.73;4.05;;;;;;;12.43;100.00;95346.22;5043913;28;20425;-73
2022/06/15 03:31:58;;;;;;;4.30;3.40;;;;;;;12.41;100.00;95337.81;5064006;28;20649;-73
2022/06/15 03:34:27;;;;;;;10.10;5.18;;;;;;;12.55;100.00;95346.22;5062694;28;20583;-73
2022/06/15 03:36:54;;;;;;;7.80;4.10;;;;;;;12.66;100.00;95351.63;5058652;28;20579;-72
2022/06/15 03:39:21;;;;;;;5.53;3.72;;;;;;;12.59;100.00;95336.09;5091563;28;20040;-73
2022/06/15 03:41:51;;;;;;;9.93;4.97;;;;;;;12.61;100.00;95334.06;5065122;28;20040;-73
2022/06/15 03:44:18;;;;;;;6.13;4.60;;;;;;;12.87;100.00;95363.28;5081470;28;20145;-73
2022/06/15 03:46:47;;;;;;;6.72;4.38;;;;;;;12.90;100.00;95357.63;5058163;28;20068;-73
2022/06/15 03:49:23;;;;;;;4.88;3.78;;;;;;;13.07;100.00;95368.94;5063774;28;20051;-73
2022/06/15 03:51:51;;;;;;;9.77;4.68;;;;;;;13.00;100.00;95347.34;5079322;28;21390;-73
2022/06/15 03:54:18;;;;;;;5.78;4.30;;;;;;;13.15;100.00;95355.47;5063573;28;20123;-73
2022/06/15 03:56:47;;;;;;;3.90;3.50;;;;;;;13.35;100.00;95364.75;5056506;28;20547;-73
2022/06/15 03:59:26;;;;;;;6.13;4.80;;;;;;;13.46;100.00;95361.28;5094862;28;20643;-73
2022/06/15 04:01:57;;;;;;;7.25;3.55;;;;;;;13.60;100.00;95366.22;5061433;28;20040;-73
2022/06/15 04:04:26;;;;;;;6.68;4.32;;;;;;;13.67;100.00;95361.63;5065833;28;20413;-73
2022/06/15 04:06:54;;;;;;;8.25;3.58;;;;;;;13.79;100.00;95359.72;5061796;28;20051;-73
2022/06/15 04:09:25;;;;;;;4.65;3.33;;;;;;;13.91;100.00;95373.53;5056891;28;20266;-73
2022/06/15 04:12:08;;;;;;;6.07;3.83;;;;;;;13.93;100.00;95363.59;5059265;28;20039;-73
2022/06/15 04:14:39;;;;;;;11.32;3.95;;;;;;;14.07;100.00;95371.16;5064895;28;20436;-73
2022/06/15 04:17:14;;;;;;;5.63;3.40;;;;;;;14.19;100.00;95368.41;5047525;28;20052;-73
2022/06/15 04:23:08;;;;;;;8.95;2.97;;;;;;;14.40;97.78;95374.75;5065234;28;20048;-73
2022/06/15 04:25:47;;;;;;;4.95;3.15;;;;;;;14.48;94.53;95376.97;5067703;28;20050;-73
2022/06/15 04:28:16;;;;;;;5.60;3.15;;;;;;;14.57;93.58;95375.53;5060627;28;20512;-73
2022/06/15 04:30:51;;;;;;;4.30;3.50;;;;;;;14.67;94.15;95374.88;5056971;28;20129;-74
2022/06/15 04:33:24;;;;;;;3.67;2.75;;;;;;;14.75;92.49;95386.75;5063384;28;20089;-74
2022/06/15 04:35:53;;;;;;;7.28;2.72;;;;;;;14.59;89.88;95368.22;5063687;28;20131;-72
2022/06/15 04:38:21;;;;;;;5.07;2.50;;;;;;;14.79;90.89;95385.25;5067114;28;20040;-74
2022/06/15 04:41:02;;;;;;;5.20;3.08;;;;;;;14.84;89.73;95395.81;5065185;28;20062;-73
2022/06/15 04:43:32;;;;;;;6.20;3.28;;;;;;;14.92;89.77;95398.00;5062302;28;20048;-73
2022/06/15 04:46:00;;;;;;;5.60;3.78;;;;;;;15.00;89.63;95396.78;5063024;28;20040;-74
2022/06/15 04:48:27;;;;;;;4.53;2.78;;;;;;;15.04;87.32;95385.56;5063895;28;20048;-75
2022/06/15 04:50:55;;;;;;;4.88;3.53;;;;;;;15.16;87.07;95397.75;5064553;28;20047;-74
2022/06/15 04:53:28;;;;;;;5.03;2.72;;;;;;;15.05;86.02;95368.78;5062735;28;20095;-74
2022/06/15 04:55:55;;;;;;;4.88;3.00;;;;;;;15.24;84.61;95390.22;5063952;28;20068;-74
2022/06/15 04:58:21;;;;;;;4.47;2.85;;;;;;;15.28;85.13;95390.53;5069270;28;20132;-74
2022/06/15 05:00:55;;;;;;;5.40;3.88;;;;;;;15.30;84.63;95385.81;5063350;28;20052;-74
2022/06/15 05:03:22;;;;;;;6.32;3.22;;;;;;;15.42;82.92;95404.84;5068181;28;21497;-74
2022/06/15 05:05:57;;;;;;;6.30;2.90;;;;;;;15.36;84.44;95392.72;5062690;28;20389;-74
2022/06/15 05:08:26;;;;;;;5.15;3.08;;;;;;;15.46;84.55;95392.81;5065490;28;20048;-72
2022/06/15 05:10:55;;;;;;;5.35;3.03;;;;;;;15.60;82.61;95397.69;5046457;28;20126;-73
2022/06/15 05:13:22;;;;;;;4.90;3.15;;;;;;;15.72;82.30;95411.47;5068899;28;20048;-74
2022/06/15 05:15:51;;;;;;;8.00;3.10;;;;;;;15.74;81.63;95398.09;5051221;28;20036;-73
2022/06/15 05:18:21;;;;;;;10.75;2.92;;;;;;;15.82;83.40;95406.31;5068750;28;20067;-73
2022/06/15 05:20:56;;;;;;;7.10;3.63;;;;;;;15.88;83.94;95414.22;5068409;28;20052;-74
2022/06/15 05:23:26;;;;;;;5.20;3.28;;;;;;;15.91;82.79;95403.22;5063746;28;20036;-73
2022/06/15 05:26:10;;;;;;;7.35;2.80;;;;;;;16.05;80.77;95414.91;5083944;28;20117;-73
2022/06/15 05:28:41;;;;;;;4.65;2.85;;;;;;;16.01;80.16;95411.22;5081769;28;20024;-73
2022/06/15 05:31:14;;;;;;;7.95;3.60;;;;;;;16.06;79.94;95416.47;5066788;28;20039;-73
2022/06/15 05:33:43;;;;;;;3.78;3.30;;;;;;;16.17;80.49;95418.16;5071345;28;20036;-72
2022/06/15 05:36:18;;;;;;;4.57;3.10;;;;;;;16.31;80.03;95420.34;5096871;28;20028;-72
2022/06/15 05:38:45;;;;;;;6.82;3.63;;;;;;;16.39;79.51;95419.91;5103563;28;20082;-72
2022/06/15 05:41:13;;;;;;;3.95;2.95;;;;;;;16.41;77.82;95420.44;5084963;28;20517;-74
2022/06/15 05:43:52;;;;;;;5.60;2.72;;;;;;;16.43;79.09;95413.09;5072311;28;20056;-74
2022/06/15 05:46:27;;;;;;;4.32;2.75;;;;;;;16.52;78.60;95408.13;5071658;28;20044;-74
2022/06/15 05:48:54;;;;;;;3.88;2.85;;;;;;;16.67;80.00;95410.84;5105204;27;20233;-74
2022/06/15 05:51:23;;;;;;;8.10;2.83;;;;;;;16.83;78.31;95419.66;5073050;28;20044;-73
2022/06/15 05:53:52;;;;;;;4.55;3.10;;;;;;;16.99;77.07;95423.94;5069981;28;20052;-74
2022/06/15 05:56:33;;;;;;;6.25;3.25;;;;;;;17.08;75.93;95420.81;5067365;28;20036;-70
2022/06/15 05:59:00;;;;;;;7.60;3.50;;;;;;;17.10;75.61;95429.25;5093926;27;20127;-67
2022/06/15 06:01:30;;;;;;;6.78;3.20;;;;;;;17.05;76.28;95431.84;5083921;28;20694;-68
2022/06/15 06:03:58;;;;;;;6.65;3.78;;;;;;;17.09;76.63;95432.94;5092922;27;20054;-67
2022/06/15 06:06:26;;;;;;;11.88;3.70;;;;;;;17.17;77.58;95440.31;5084516;28;20127;-67
2022/06/15 06:08:53;;;;;;;4.43;2.75;;;;;;;17.24;75.50;95430.34;5085020;28;20036;-67
2022/06/15 06:11:21;;;;;;;8.75;3.88;;;;;;;17.36;76.56;95433.56;5081165;28;20535;-67
2022/06/15 06:13:48;;;;;;;5.65;2.38;;;;;;;17.39;75.21;95438.31;5082888;28;20109;-67
2022/06/15 06:16:19;;;;;;;5.35;3.15;;;;;;;17.56;76.90;95432.03;5079411;28;20044;-66
2022/06/15 06:18:47;;;;;;;5.35;2.63;;;;;;;17.65;74.58;95435.72;5085610;28;20072;-76
2022/06/15 06:21:14;;;;;;;5.57;2.92;;;;;;;17.63;75.39;95437.84;5058526;28;20094;-68
2022/06/15 06:23:41;;;;;;;4.45;2.85;;;;;;;17.62;73.48;95433.63;5082041;28;20054;-68
2022/06/15 06:26:18;;;;;;;5.00;3.50;;;;;;;17.76;74.30;95437.31;5076136;28;20036;-68
2022/06/15 06:28:45;;;;;;;5.95;2.95;;;;;;;17.85;74.55;95428.91;5079971;28;20053;-69
2022/06/15 06:31:12;;;;;;;6.70;3.13;;;;;;;18.06;74.10;95435.81;5041546;28;20566;-68
2022/06/15 06:33:39;;;;;;;4.13;2.75;;;;;;;18.14;70.20;95442.41;5083070;28;20040;-68
2022/06/15 06:36:32;;;;;;;3.45;2.78;;;;;;;18.26;70.21;95439.53;5081054;28;20047;-68
2022/06/15 06:39:06;;;;;;;4.15;2.70;;;;;;;18.26;69.14;95439.53;5069059;28;20040;-68
2022/06/15 06:41:33;;;;;;;5.10;2.70;;;;;;;18.41;70.36;95436.84;5078913;28;20050;-68
2022/06/15 06:44:04;;;;;;;4.60;2.97;;;;;;;18.46;70.71;95434.22;5078927;28;20127;-68
2022/06/15 06:46:36;;;;;;;4.30;2.30;;;;;;;18.61;69.31;95429.97;5078264;28;20071;-68
2022/06/15 06:49:07;;;;;;;3.60;2.85;;;;;;;18.70;66.14;95444.19;5076506;28;20080;-68
2022/06/15 06:51:36;;;;;;;6.85;2.58;;;;;;;18.70;65.52;95434.44;5057637;28;20039;-68
2022/06/15 06:54:05;;;;;;;8.90;4.75;;;;;;;18.70;68.61;95436.28;5078136;28;20264;-68
2022/06/15 06:56:34;;;;;;;3.95;2.60;;;;;;;18.64;66.78;95434.72;5076582;28;20051;-73
2022/06/15 06:59:06;;;;;;;6.45;2.72;;;;;;;18.62;69.01;95431.53;5074993;28;20631;-72
2022/06/15 07:01:35;;;;;;;6.82;2.63;;;;;;;18.80;68.74;95444.19;5079820;28;20059;-74
2022/06/15 07:04:02;;;;;;;4.20;2.97;;;;;;;18.86;67.57;95427.31;5076565;28;20097;-74
2022/06/15 07:06:30;;;;;;;4.53;2.25;;;;;;;18.84;65.26;95433.91;5078134;28;20043;-72
2022/06/15 07:08:57;;;;;;;6.38;2.85;;;;;;;19.04;66.62;95443.63;5076285;28;20736;-73
2022/06/15 07:11:24;;;;;;;6.40;2.78;;;;;;;19.10;64.07;95440.72;5079142;28;20028;-72
2022/06/15 07:13:51;;;;;;;3.72;2.70;;;;;;;19.03;62.75;95448.13;5059288;28;20160;-73
2022/06/15 07:16:20;;;;;;;6.25;2.05;;;;;;;19.04;65.89;95440.97;5079879;28;20058;-72
2022/06/15 07:18:48;;;;;;;6.47;2.25;;;;;;;19.23;65.47;95435.88;5058579;28;20036;-74
2022/06/15 07:21:23;;;;;;;2.67;1.88;;;;;;;19.10;64.03;95439.91;5076660;28;20135;-74
2022/06/15 07:23:52;;;;;;;3.75;2.30;;;;;;;19.32;62.12;95451.97;5056312;28;20036;-73
2022/06/15 07:26:23;;;;;;;5.50;3.55;;;;;;;19.40;65.63;95435.56;5059226;28;20040;-73
2022/06/15 07:28:50;;;;;;;2.60;2.38;;;;;;;19.64;63.94;95447.06;5076197;28;20040;-73
2022/06/15 07:31:30;;;;;;;3.85;3.08;;;;;;;19.61;64.41;95437.03;5061370;28;20031;-73
2022/06/15 07:33:58;;;;;;;5.88;2.55;;;;;;;19.74;60.68;95446.22;5083822;28;20910;-73
2022/06/15 07:36:34;;;;;;;9.43;2.97;;;;;;;19.79;61.41;95445.41;5083661;28;20032;-73
2022/06/15 07:39:03;;;;;;;4.32;2.42;;;;;;;19.73;60.62;95449.13;5085314;28;20127;-73
2022/06/15 07:41:30;;;;;;;4.60;2.63;;;;;;;19.76;62.66;95438.81;5063043;28;20035;-73
2022/06/15 07:43:58;;;;;;;4.00;2.33;;;;;;;19.88;58.63;95433.19;5071213;28;20109;-71
2022/06/15 07:46:25;;;;;;;4.40;2.15;;;;;;;20.01;59.09;95445.78;5079699;28;20127;-71
2022/06/15 07:51:50;;;;;;;6.13;3.25;;;;;;;20.25;61.40;95445.09;5080974;28;20119;-71
2022/06/15 07:54:19;;;;;;;8.73;2.88;;;;;;;20.31;58.70;95444.00;5069366;28;20047;-72
2022/06/15 07:56:46;;;;;;;4.47;2.65;;;;;;;20.34;59.92;95443.41;5083513;28;20097;-71
2022/06/15 07:59:15;;;;;;;3.75;2.70;;;;;;;20.54;58.92;95431.84;5070788;28;20071;-73
2022/06/15 08:01:43;;;;;;;4.40;1.85;;;;;;;20.44;54.89;95438.03;5064338;28;20040;-74
2022/06/15 08:04:11;;;;;;;4.35;2.08;;;;;;;20.33;55.17;95447.13;5066437;28;20089;-73
2022/06/15 08:06:42;;;;;;;4.78;2.75;;;;;;;20.38;56.71;95444.47;5085664;28;20102;-73
2022/06/15 08:09:10;;;;;;;3.65;2.13;;;;;;;20.54;54.92;95458.31;5066623;28;20059;-73
2022/06/15 08:11:38;;;;;;;2.88;2.10;;;;;;;20.49;55.68;95449.63;5087227;28;20040;-73
2022/06/15 08:14:06;;;;;;;2.85;2.30;;;;;;;20.67;55.39;95441.06;5089583;28;20040;-73
2022/06/15 08:16:33;;;;;;;4.35;1.90;;;;;;;20.77;54.18;95445.44;5109667;28;20056;-73
2022/06/15 08:19:03;;;;;;;2.92;1.95;;;;;;;20.79;54.31;95443.31;5106282;28;20138;-72
2022/06/15 08:21:35;;;;;;;3.22;2.17;;;;;;;21.09;51.98;95444.84;5089287;28;20040;-71
2022/06/15 08:24:03;;;;;;;5.20;2.80;;;;;;;21.17;52.32;95438.91;5084158;28;20070;-71
2022/06/15 08:26:36;;;;;;;4.20;1.80;;;;;;;21.35;50.07;95439.22;5087185;28;20052;-72
2022/06/15 08:29:08;;;;;;;4.90;2.27;;;;;;;21.41;48.83;95453.19;5097893;28;20081;-72
2022/06/15 08:31:36;;;;;;;3.50;2.50;;;;;;;21.30;48.43;95444.59;5073823;28;20040;-72
2022/06/15 08:34:05;;;;;;;4.13;2.40;;;;;;;21.44;49.94;95442.81;5091584;28;20040;-72
2022/06/15 08:36:34;;;;;;;7.53;2.60;;;;;;;21.23;52.36;95436.19;5099752;28;20073;-71
2022/06/15 08:39:02;;;;;;;4.35;2.45;;;;;;;21.42;53.01;95444.97;5079501;28;20632;-72
2022/06/15 08:41:36;;;;;;;4.75;1.92;;;;;;;21.41;49.57;95438.09;5082676;28;20039;-74
2022/06/15 08:44:37;;;;;;;3.80;2.20;;;;;;;21.56;51.79;95435.28;5080653;28;20112;-74
2022/06/15 08:47:41;;;;;;;4.07;2.42;;;;;;;21.97;53.58;95441.88;5112525;28;20048;-73
2022/06/15 08:50:25;;;;;;;4.72;2.97;;;;;;;22.16;54.09;95436.53;5111427;28;20027;-75
2022/06/15 08:53:14;;;;;;;3.80;2.50;;;;;;;22.14;51.54;95438.69;5087757;28;20058;-74
2022/06/15 08:55:59;;;;;;;4.53;2.42;;;;;;;21.93;51.14;95443.50;5085515;28;20134;-75
2022/06/15 08:59:17;;;;;;;3.25;2.10;;;;;;;22.13;49.85;95442.44;5079071;28;20512;-75
2022/06/15 09:02:05;;;;;;;4.22;2.28;;;;;;;22.32;48.53;95445.84;5040504;28;20040;-73
2022/06/15 09:04:46;;;;;;;3.60;2.30;;;;;;;22.30;50.46;95437.38;5093396;28;20225;-73
2022/06/15 09:07:25;;;;;;;5.13;2.35;;;;;;;22.36;52.31;95430.13;5072233;28;20309;-76
2022/06/15 09:10:21;;;;;;;6.57;2.15;;;;;;;22.23;49.73;95447.56;5069485;28;20074;-74
2022/06/15 09:13:22;;;;;;;3.63;1.63;;;;;;;22.29;50.27;95446.44;5086219;28;20578;-75
2022/06/15 09:15:52;;;;;;;4.75;2.35;;;;;;;22.61;52.89;95444.84;5089671;28;20032;-74
2022/06/15 09:18:25;;;;;;;2.40;2.10;;;;;;;22.76;49.98;95440.34;5087545;28;20044;-72
2022/06/15 09:21:02;;;;;;;6.93;2.63;;;;;;;22.94;52.01;95439.50;5080954;28;20608;-71
2022/06/15 09:23:39;;;;;;;3.25;2.47;;;;;;;22.60;51.07;95437.97;5063705;28;20039;-71
2022/06/15 09:26:18;;;;;;;5.80;1.92;;;;;;;22.65;51.96;95432.56;5087524;28;20036;-72
2022/06/15 09:28:53;;;;;;;4.60;2.42;;;;;;;22.97;50.12;95438.88;5064707;28;20142;-72
2022/06/15 09:31:35;;;;;;;3.78;2.08;;;;;;;23.13;50.32;95436.75;5084211;28;20123;-73
2022/06/15 09:34:05;;;;;;;3.97;1.77;;;;;;;23.18;48.76;95427.91;5081364;28;20094;-73
2022/06/15 09:36:49;;;;;;;5.75;2.55;;;;;;;23.27;50.67;95442.06;5087846;28;20040;-73
2022/06/15 09:39:16;;;;;;;3.50;2.07;;;;;;;23.34;49.10;95450.44;5057713;28;20043;-72
2022/06/15 09:42:06;;;;;;;4.55;2.60;;;;;;;23.59;49.53;95440.34;5086410;28;20484;-73
2022/06/15 09:45:08;;;;;;;4.90;2.42;;;;;;;23.58;47.37;95430.78;5038387;28;20102;-73
2022/06/15 09:47:50;;;;;;;6.03;2.30;;;;;;;23.64;46.78;95440.22;5062230;28;20048;-72
2022/06/15 09:50:34;;;;;;;4.40;2.40;;;;;;;23.53;48.69;95422.94;5060326;28;20059;-73
2022/06/15 09:53:11;;;;;;;2.25;2.00;;;;;;;23.84;46.64;95445.16;5081069;28;20036;-72
2022/06/15 09:55:48;;;;;;;3.65;2.03;;;;;;;23.91;47.24;95438.59;5050924;28;20055;-73
2022/06/15 09:58:55;;;;;;;3.55;2.10;;;;;;;23.85;46.84;95430.75;5082270;28;20121;-74
2022/06/15 10:01:26;;;;;;;5.75;2.10;;;;;;;23.85;48.17;95433.41;5049735;28;20078;-73
2022/06/15 10:03:56;;;;;;;3.53;1.80;;;;;;;23.83;47.17;95427.59;5058736;28;20447;-73
2022/06/15 10:06:45;;;;;;;3.13;2.25;;;;;;;23.95;46.21;95432.41;5063736;28;20040;-72
2022/06/15 10:09:17;;;;;;;2.15;1.88;;;;;;;24.11;46.45;95424.84;5060875;28;20058;-72
2022/06/15 10:11:55;;;;;;;1.98;1.17;;;;;;;23.86;45.30;95431.56;5061865;28;20051;-72
2022/06/15 10:14:36;;;;;;;3.55;1.88;;;;;;;24.00;46.80;95428.81;5081668;28;20540;-72
2022/06/15 10:17:28;;;;;;;3.97;2.58;;;;;;;23.70;44.46;95412.47;5061636;28;20078;-72
2022/06/15 10:19:57;;;;;;;3.20;2.00;;;;;;;23.93;45.59;95415.16;5080144;28;20028;-73
2022/06/15 10:22:29;;;;;;;2.40;1.98;;;;;;;24.08;45.47;95396.19;5081032;28;20027;-73
2022/06/15 10:24:59;;;;;;;4.30;2.00;;;;;;;24.36;45.50;95407.47;5068679;28;20828;-73
2022/06/15 10:27:36;;;;;;;3.30;2.10;;;;;;;24.77;43.86;95426.97;5063468;28;20096;-73
2022/06/15 10:30:06;;;;;;;5.93;2.47;;;;;;;24.78;44.51;95418.66;5091535;27;20044;-73
2022/06/15 10:32:35;;;;;;;4.47;2.20;;;;;;;24.91;43.15;95410.88;5083124;28;20712;-73
2022/06/15 10:35:02;;;;;;;2.22;1.60;;;;;;;24.82;43.19;95412.75;5084694;28;20069;-73
2022/06/15 10:37:31;;;;;;;3.42;2.25;;;;;;;24.76;44.73;95412.09;5060298;28;20098;-73
2022/06/15 10:40:29;;;;;;;3.03;1.65;;;;;;;24.92;43.40;95413.25;5065585;28;20032;-73
2022/06/15 10:43:03;;;;;;;4.30;2.25;;;;;;;25.18;42.73;95409.88;5067741;28;20059;-73
2022/06/15 10:45:36;;;;;;;5.90;1.67;;;;;;;24.94;44.29;95416.38;5064612;28;20131;-73
2022/06/15 10:48:15;;;;;;;5.10;1.73;;;;;;;25.02;43.35;95411.41;5058236;28;20038;-72
2022/06/15 10:51:03;;;;;;;4.32;1.85;;;;;;;25.47;41.31;95405.88;5066199;28;21482;-73
2022/06/15 10:53:39;;;;;;;3.72;2.15;;;;;;;25.67;42.87;95407.94;5077425;28;20089;-73
2022/06/15 11:02:30;;;;;;;3.20;1.98;;;;;;;25.78;41.37;95399.63;5081941;28;20032;-73
2022/06/15 11:05:13;;;;;;;3.85;2.08;;;;;;;26.12;41.95;95394.28;5076818;28;20108;-73
2022/06/15 11:08:11;;;;;;;3.63;2.42;;;;;;;26.27;39.56;95406.38;5073642;28;20048;-74
2022/06/15 11:10:45;;;;;;;3.03;1.90;;;;;;;25.83;39.97;95375.47;5084727;28;20139;-72
2022/06/15 11:13:17;;;;;;;;;;;;;;;26.18;40.24;95388.78;5084130;28;20055;-74
2022/06/15 11:18:43;;;;;;;5.90;2.55;;;;;;;25.89;38.85;95395.53;5081622;28;20055;-73
2022/06/15 11:21:22;;;;;;;3.08;2.20;;;;;;;26.13;41.52;95390.53;5060332;28;20093;-73
2022/06/15 11:23:58;;;;;;;2.80;1.70;;;;;;;26.60;37.99;95402.38;5077789;28;20216;-74
2022/06/15 11:26:53;;;;;;;3.97;1.98;;;;;;;26.79;37.34;95394.75;5088658;28;20071;-73
2022/06/15 11:29:33;;;;;;;4.55;2.45;;;;;;;27.33;36.60;95390.75;5058441;28;20040;-73
2022/06/15 11:32:38;;;;;;;2.13;1.80;;;;;;;27.69;36.81;95386.72;5076318;28;20028;-73
2022/06/15 11:35:27;;;;;;;3.30;2.17;;;;;;;27.77;36.96;95388.56;5075779;28;20785;-73
2022/06/15 11:38:19;;;;;;;7.97;2.22;;;;;;;27.97;39.11;95385.09;5060177;28;20055;-73
2022/06/15 11:41:19;;;;;;;4.30;1.90;;;;;;;28.16;37.07;95389.16;5075105;28;20067;-73
2022/06/15 11:43:49;;;;;;;3.13;2.10;;;;;;;28.29;36.56;95376.59;5083111;28;20071;-73
2022/06/15 11:46:36;;;;;;;2.40;2.20;;;;;;;28.07;35.10;95393.81;5059514;28;20159;-74
2022/06/15 11:49:11;;;;;;;6.35;2.50;;;;;;;27.75;36.06;95391.56;5062458;28;20066;-74
2022/06/15 11:51:58;;;;;;;1.88;1.60;;;;;;;27.85;37.93;95393.03;5059763;28;20037;-74
2022/06/15 11:54:28;;;;;;;2.85;2.17;;;;;;;27.98;36.19;95397.38;5087479;28;20761;-74
2022/06/15 11:57:32;;;;;;;3.05;2.58;;;;;;;28.20;37.22;95395.44;5075586;28;20036;-74
2022/06/15 12:00:29;;;;;;;5.03;2.15;;;;;;;28.59;35.95;95374.56;5094489;28;20047;-73
2022/06/15 12:03:15;;;;;;;3.72;1.90;;;;;;;28.71;34.55;95388.00;5030004;28;20127;-71
2022/06/15 12:05:49;;;;;;;2.53;2.10;;;;;;;28.73;35.02;95375.03;5063877;28;20055;-72
2022/06/15 12:08:28;;;;;;;5.50;3.15;;;;;;;28.28;36.55;95381.19;5076958;28;20047;-73
2022/06/15 12:11:05;;;;;;;3.28;2.55;;;;;;;28.05;37.09;95371.97;5059898;28;20456;-73
2022/06/15 12:13:37;;;;;;;3.22;2.30;;;;;;;27.98;39.12;95386.69;5057768;28;20936;-73
2022/06/15 12:16:12;;;;;;;5.88;3.58;;;;;;;27.96;40.48;95380.84;5078412;28;20079;-72
2022/06/15 12:19:04;;;;;;;3.63;2.30;;;;;;;28.88;39.20;95375.47;5056518;28;20543;-73
2022/06/15 12:21:53;;;;;;;3.92;2.58;;;;;;;29.89;33.51;95385.44;5068225;28;20039;-73
2022/06/15 12:24:32;;;;;;;2.33;2.13;;;;;;;30.15;31.33;95386.88;5063130;28;20044;-73